createdAt,value
2022-09-18T00:01:01.188Z,15.00
2022-09-18T00:03:28.972Z,14.90
2022-09-18T00:05:56.355Z,14.80
2022-09-18T00:08:23.598Z,14.60
2022-09-18T00:10:50.947Z,14.60
2022-09-18T00:13:18.219Z,14.50
2022-09-18T00:15:54.099Z,14.40
2022-09-18T00:18:21.423Z,14.30
2022-09-18T00:20:48.787Z,14.30
2022-09-18T00:23:16.114Z,14.30
2022-09-18T00:25:43.477Z,14.20
2022-09-18T00:28:10.830Z,14.20
2022-09-18T00:30:40.019Z,14.20
2022-09-18T00:33:07.357Z,14.20
2022-09-18T00:35:34.746Z,14.20
2022-09-18T00:38:02.063Z,14.20
2022-09-18T00:40:29.494Z,14.30
2022-09-18T00:42:56.808Z,14.30
2022-09-18T00:45:24.118Z,14.30
2022-09-18T00:47:51.732Z,14.40
2022-09-18T00:50:23.957Z,14.40
2022-09-18T00:52:51.285Z,14.40
2022-09-18T00:55:21.090Z,14.50
2022-09-18T00:57:50.515Z,14.50
2022-09-18T01:00:18.496Z,14.50
2022-09-18T01:02:46.492Z,14.50
2022-09-18T01:05:16.441Z,14.50
2022-09-18T01:08:02.062Z,14.50
2022-09-18T01:10:32.540Z,14.50
2022-09-18T01:13:06.633Z,14.50
2022-09-18T01:15:47.055Z,14.60
2022-09-18T01:18:14.407Z,14.60
2022-09-18T01:21:00.016Z,14.60
2022-09-18T01:23:51.326Z,14.60
2022-09-18T01:26:27.990Z,14.60
2022-09-18T01:28:58.673Z,14.60
2022-09-18T01:31:32.191Z,14.70
2022-09-18T01:34:02.480Z,14.70
2022-09-18T01:36:32.605Z,14.70
2022-09-18T01:39:06.207Z,14.80
2022-09-18T01:41:35.005Z,14.70
2022-09-18T01:44:06.853Z,14.70
2022-09-18T01:46:34.509Z,14.70
2022-09-18T01:49:12.997Z,14.70
2022-09-18T01:51:56.426Z,14.70
2022-09-18T01:54:27.449Z,14.60
2022-09-18T01:56:58.195Z,14.60
2022-09-18T01:59:35.609Z,14.60
2022-09-18T02:02:15.329Z,14.60
2022-09-18T02:04:44.934Z,14.60
2022-09-18T02:07:14.886Z,14.60
2022-09-18T02:09:43.259Z,14.70
2022-09-18T02:12:13.296Z,14.70
2022-09-18T02:14:42.620Z,14.70
2022-09-18T02:17:46.782Z,14.70
2022-09-18T02:20:26.602Z,14.80
2022-09-18T02:22:55.197Z,14.80
2022-09-18T02:25:26.192Z,14.80
2022-09-18T02:27:54.314Z,14.80
2022-09-18T02:30:22.071Z,14.70
2022-09-18T02:32:53.310Z,14.60
2022-09-18T02:35:20.955Z,14.50
2022-09-18T02:38:24.529Z,14.40
2022-09-18T02:41:00.934Z,14.30
2022-09-18T02:43:40.631Z,14.20
2022-09-18T02:46:11.006Z,14.20
2022-09-18T02:48:54.442Z,14.20
2022-09-18T02:51:22.049Z,14.30
2022-09-18T02:53:52.287Z,14.30
2022-09-18T02:56:29.695Z,14.30
2022-09-18T02:59:10.414Z,14.30
2022-09-18T03:01:42.277Z,14.40
2022-09-18T03:04:20.275Z,14.40
2022-09-18T03:07:05.036Z,14.50
2022-09-18T03:09:38.741Z,14.60
2022-09-18T03:12:07.027Z,14.60
2022-09-18T03:14:38.881Z,14.70
2022-09-18T03:17:06.317Z,14.80
2022-09-18T03:19:33.591Z,14.80
2022-09-18T03:22:02.944Z,14.90
2022-09-18T03:24:33.128Z,14.90
2022-09-18T03:27:03.134Z,15.00
2022-09-18T03:29:30.493Z,15.00
2022-09-18T03:31:58.551Z,15.00
2022-09-18T03:34:25.889Z,15.10
2022-09-18T03:36:53.244Z,15.10
2022-09-18T03:39:20.742Z,15.10
2022-09-18T03:41:50.625Z,15.10
2022-09-18T03:44:17.947Z,15.10
2022-09-18T03:46:46.474Z,15.10
2022-09-18T03:49:14.164Z,15.10
2022-09-18T03:51:43.057Z,15.10
2022-09-18T03:54:10.434Z,15.00
2022-09-18T03:56:56.196Z,15.00
2022-09-18T03:59:38.080Z,15.00
2022-09-18T04:02:27.939Z,15.00
2022-09-18T04:05:15.685Z,15.00
2022-09-18T04:08:06.159Z,15.00
2022-09-18T04:10:56.332Z,15.00
2022-09-18T04:13:24.093Z,15.00
2022-09-18T04:15:51.595Z,15.00
2022-09-18T04:18:18.988Z,15.10
2022-09-18T04:20:48.244Z,15.10
2022-09-18T04:23:15.697Z,15.10
2022-09-18T04:25:43.859Z,15.10
2022-09-18T04:28:13.019Z,15.10
2022-09-18T04:30:44.274Z,15.10
2022-09-18T04:33:11.530Z,15.10
2022-09-18T04:35:39.328Z,15.10
2022-09-18T04:38:09.808Z,15.00
2022-09-18T04:40:37.302Z,15.00
2022-09-18T04:43:05.198Z,15.00
2022-09-18T04:45:32.817Z,15.00
2022-09-18T04:48:00.217Z,15.00
2022-09-18T04:50:29.009Z,15.00
2022-09-18T04:53:28.676Z,15.10
2022-09-18T04:55:57.685Z,14.90
2022-09-18T04:58:25.218Z,14.90
2022-09-18T05:00:59.854Z,14.90
2022-09-18T05:03:27.418Z,14.80
2022-09-18T05:05:55.332Z,14.80
2022-09-18T05:08:23.206Z,14.70
2022-09-18T05:10:51.426Z,14.70
2022-09-18T05:13:18.914Z,14.70
2022-09-18T05:16:00.287Z,14.60
2022-09-18T05:18:30.505Z,14.70
2022-09-18T05:21:04.184Z,14.70
2022-09-18T05:23:34.183Z,14.70
2022-09-18T05:26:02.507Z,14.70
2022-09-18T05:28:29.891Z,14.80
2022-09-18T05:31:00.324Z,14.80
2022-09-18T05:33:33.675Z,14.90
2022-09-18T05:36:01.233Z,14.90
2022-09-18T05:38:28.567Z,14.80
2022-09-18T05:40:59.300Z,14.80
2022-09-18T05:43:26.615Z,14.80
2022-09-18T05:45:54.137Z,14.70
2022-09-18T05:48:28.663Z,14.60
2022-09-18T05:50:58.500Z,14.60
2022-09-18T05:53:27.967Z,14.50
2022-09-18T05:56:19.302Z,14.50
2022-09-18T05:58:47.002Z,14.40
2022-09-18T06:01:14.736Z,14.40
2022-09-18T06:04:08.242Z,14.30
2022-09-18T06:06:44.527Z,14.30
2022-09-18T06:09:12.747Z,14.20
2022-09-18T06:11:40.067Z,14.20
2022-09-18T06:14:07.417Z,14.20
2022-09-18T06:16:38.638Z,14.20
2022-09-18T06:19:09.782Z,14.20
2022-09-18T06:21:37.598Z,14.20
2022-09-18T06:24:07.753Z,14.10
2022-09-18T06:26:45.348Z,14.10
2022-09-18T06:29:12.690Z,14.10
2022-09-18T06:31:50.058Z,14.10
2022-09-18T06:34:25.806Z,14.10
2022-09-18T06:36:56.677Z,14.10
2022-09-18T06:39:44.579Z,14.20
2022-09-18T06:42:46.062Z,14.20
2022-09-18T06:45:33.844Z,14.20
2022-09-18T06:48:02.578Z,14.30
2022-09-18T06:50:31.105Z,14.30
2022-09-18T06:53:02.848Z,14.20
2022-09-18T06:55:33.400Z,14.30
2022-09-18T06:58:00.812Z,14.20
2022-09-18T07:00:28.716Z,14.10
2022-09-18T07:03:00.070Z,14.00
2022-09-18T07:05:50.340Z,13.90
2022-09-18T07:08:36.645Z,13.80
2022-09-18T07:11:14.191Z,13.70
2022-09-18T07:13:41.922Z,13.70
2022-09-18T07:16:10.151Z,13.60
2022-09-18T07:18:37.581Z,13.60
2022-09-18T07:21:05.007Z,13.60
2022-09-18T07:23:37.652Z,13.50
2022-09-18T07:26:05.411Z,13.50
2022-09-18T07:28:34.506Z,13.50
2022-09-18T07:31:24.506Z,13.50
2022-09-18T07:33:53.464Z,13.50
2022-09-18T07:36:23.315Z,13.50
2022-09-18T07:38:51.516Z,13.60
2022-09-18T07:41:20.058Z,13.60
2022-09-18T07:43:51.628Z,13.70
2022-09-18T07:46:19.319Z,13.70
2022-09-18T07:48:49.235Z,13.80
2022-09-18T07:51:26.100Z,13.80
2022-09-18T07:53:55.253Z,13.80
2022-09-18T07:56:36.923Z,13.90
2022-09-18T07:59:04.736Z,13.90
2022-09-18T08:01:34.947Z,13.90
2022-09-18T08:04:04.235Z,14.00
2022-09-18T08:06:31.689Z,14.00
2022-09-18T08:09:11.286Z,14.00
2022-09-18T08:11:57.586Z,13.90
2022-09-18T08:14:37.206Z,13.80
2022-09-18T08:17:19.431Z,13.80
2022-09-18T08:20:10.572Z,13.70
2022-09-18T08:23:05.629Z,13.60
2022-09-18T08:25:33.366Z,13.60
2022-09-18T08:28:04.709Z,13.50
2022-09-18T08:30:41.363Z,13.50
2022-09-18T08:33:10.808Z,13.50
2022-09-18T08:35:38.314Z,13.50
2022-09-18T08:38:18.034Z,13.50
2022-09-18T08:41:13.218Z,13.60
2022-09-18T08:44:08.264Z,13.60
2022-09-18T08:46:49.798Z,13.70
2022-09-18T08:49:45.260Z,13.70
2022-09-18T08:52:16.068Z,13.80
2022-09-18T08:54:44.042Z,13.90
2022-09-18T08:57:34.892Z,13.90
2022-09-18T09:00:18.239Z,14.00
2022-09-18T09:02:57.110Z,14.00
2022-09-18T09:05:31.374Z,14.10
2022-09-18T09:08:14.966Z,14.10
2022-09-18T09:11:01.826Z,14.10
2022-09-18T09:13:45.772Z,14.20
2022-09-18T09:16:22.878Z,14.20
2022-09-18T09:18:51.841Z,14.30
2022-09-18T09:21:19.275Z,14.40
2022-09-18T09:23:52.777Z,14.40
2022-09-18T09:26:40.946Z,14.50
2022-09-18T09:29:35.279Z,14.60
2022-09-18T09:32:29.785Z,14.60
2022-09-18T09:35:17.395Z,14.80
2022-09-18T09:38:23.108Z,14.90
2022-09-18T09:40:52.862Z,14.90
2022-09-18T09:43:25.218Z,15.00
2022-09-18T09:45:54.622Z,15.00
2022-09-18T09:48:30.688Z,15.10
2022-09-18T09:51:04.523Z,15.20
2022-09-18T09:53:32.141Z,15.20
2022-09-18T09:56:17.830Z,15.20
2022-09-18T09:59:08.477Z,15.30
2022-09-18T10:01:53.293Z,15.30
2022-09-18T10:04:23.671Z,15.30
2022-09-18T10:06:58.050Z,15.40
2022-09-18T10:09:29.872Z,15.40
2022-09-18T10:12:11.438Z,15.40
2022-09-18T10:14:42.601Z,15.50
2022-09-18T10:17:12.702Z,15.60
2022-09-18T10:19:41.244Z,15.60
2022-09-18T10:22:12.260Z,15.70
2022-09-18T10:24:42.995Z,15.70
2022-09-18T10:27:12.486Z,15.80
2022-09-18T10:29:42.543Z,15.90
2022-09-18T10:32:31.937Z,15.90
2022-09-18T10:35:26.955Z,16.00
2022-09-18T10:37:54.406Z,16.00
2022-09-18T10:40:40.536Z,16.10
2022-09-18T10:43:19.305Z,16.20
2022-09-18T10:45:53.235Z,16.20
2022-09-18T10:48:31.629Z,16.30
2022-09-18T10:51:00.413Z,16.30
2022-09-18T10:53:35.332Z,16.40
2022-09-18T10:56:17.767Z,16.40
2022-09-18T10:58:45.344Z,16.40
2022-09-18T11:01:13.352Z,16.50
2022-09-18T11:03:49.985Z,16.50
2022-09-18T11:06:27.865Z,16.50
2022-09-18T11:09:00.431Z,16.40
2022-09-18T11:11:31.187Z,16.40
2022-09-18T11:14:08.807Z,16.40
2022-09-18T11:16:52.143Z,16.30
2022-09-18T11:19:23.181Z,16.30
2022-09-18T11:21:51.729Z,16.30
2022-09-18T11:24:34.988Z,16.30
2022-09-18T11:27:22.309Z,16.30
2022-09-18T11:29:53.345Z,16.40
2022-09-18T11:32:25.540Z,16.40
2022-09-18T11:34:58.972Z,16.50
2022-09-18T11:37:30.824Z,16.50
2022-09-18T11:40:05.365Z,16.50
2022-09-18T11:42:32.936Z,16.50
2022-09-18T11:45:26.627Z,16.50
2022-09-18T11:48:14.395Z,16.50
2022-09-18T11:50:42.957Z,16.50
2022-09-18T11:53:14.753Z,16.50
2022-09-18T11:55:45.389Z,16.60
2022-09-18T11:58:16.656Z,16.60
2022-09-18T12:00:48.872Z,16.70
2022-09-18T12:03:25.133Z,16.80
2022-09-18T12:06:06.744Z,16.90
2022-09-18T12:08:32.814Z,17.10
2022-09-18T12:11:09.398Z,17.10
2022-09-18T12:13:52.014Z,17.20
2022-09-18T12:16:22.763Z,17.40
2022-09-18T12:18:56.101Z,17.40
2022-09-18T12:21:31.667Z,17.40
2022-09-18T12:24:00.203Z,17.40
2022-09-18T12:26:54.615Z,17.50
2022-09-18T12:29:21.955Z,17.50
2022-09-18T12:31:55.382Z,17.50
2022-09-18T12:34:42.546Z,17.50
2022-09-18T12:37:12.958Z,17.50
2022-09-18T12:40:16.201Z,17.50
2022-09-18T12:42:46.321Z,17.40
2022-09-18T12:45:36.990Z,17.10
2022-09-18T12:48:10.015Z,16.90
2022-09-18T12:50:48.396Z,16.60
2022-09-18T12:53:33.804Z,16.40
2022-09-18T12:56:06.398Z,16.20
2022-09-18T12:58:39.845Z,16.00
2022-09-18T13:01:22.360Z,15.90
2022-09-18T13:03:50.636Z,15.80
2022-09-18T13:06:23.030Z,15.70
2022-09-18T13:08:55.057Z,15.70
2022-09-18T13:11:43.609Z,15.60
2022-09-18T13:14:16.974Z,15.60
2022-09-18T13:16:52.432Z,15.60
2022-09-18T13:19:33.741Z,15.60
2022-09-18T13:22:05.561Z,15.70
2022-09-18T13:24:34.328Z,15.70
2022-09-18T13:27:08.827Z,15.80
2022-09-18T13:29:56.314Z,15.80
2022-09-18T13:32:37.122Z,15.90
2022-09-18T13:35:30.747Z,16.00
2022-09-18T13:38:24.418Z,16.10
2022-09-18T13:41:03.561Z,16.20
2022-09-18T13:43:32.914Z,16.30
2022-09-18T13:46:07.150Z,16.50
2022-09-18T13:48:37.953Z,16.60
2022-09-18T13:51:08.304Z,16.80
2022-09-18T13:53:39.386Z,17.00
2022-09-18T13:56:08.302Z,17.20
2022-09-18T13:58:50.282Z,17.40
2022-09-18T14:01:36.272Z,17.60
2022-09-18T14:04:03.553Z,17.70
2022-09-18T14:06:37.126Z,17.90
2022-09-18T14:09:24.268Z,18.00
2022-09-18T14:11:51.836Z,18.10
2022-09-18T14:14:21.609Z,18.20
2022-09-18T14:16:51.052Z,18.30
2022-09-18T14:19:44.418Z,18.30
2022-09-18T14:22:25.659Z,18.40
2022-09-18T14:24:53.121Z,18.50
2022-09-18T14:27:38.941Z,18.60
2022-09-18T14:30:14.400Z,18.70
2022-09-18T14:32:43.966Z,18.90
2022-09-18T14:35:30.003Z,18.90
2022-09-18T14:37:58.475Z,18.90
2022-09-18T14:40:27.711Z,18.80
2022-09-18T14:42:55.181Z,18.90
2022-09-18T14:45:31.824Z,18.80
2022-09-18T14:47:59.384Z,18.80
2022-09-18T14:50:32.907Z,18.80
2022-09-18T14:53:01.668Z,18.70
2022-09-18T14:55:32.330Z,18.70
2022-09-18T14:58:07.154Z,18.60
2022-09-18T15:00:35.665Z,18.60
2022-09-18T15:03:06.173Z,18.60
2022-09-18T15:05:34.246Z,18.70
2022-09-18T15:08:05.972Z,18.70
2022-09-18T15:10:34.905Z,18.70
2022-09-18T15:13:04.847Z,18.60
2022-09-18T15:15:33.847Z,18.60
2022-09-18T15:18:01.799Z,18.50
2022-09-18T15:20:29.763Z,18.30
2022-09-18T15:22:57.126Z,18.10
2022-09-18T15:25:27.305Z,17.90
2022-09-18T15:27:56.443Z,17.80
2022-09-18T15:30:24.698Z,17.60
2022-09-18T15:33:04.151Z,17.50
2022-09-18T15:35:36.831Z,17.40
2022-09-18T15:38:05.994Z,17.20
2022-09-18T15:40:43.462Z,17.10
2022-09-18T15:43:29.535Z,17.00
2022-09-18T15:46:10.834Z,16.90
2022-09-18T15:48:44.302Z,16.80
2022-09-18T15:51:11.571Z,16.80
2022-09-18T15:53:39.074Z,16.80
2022-09-18T15:56:18.218Z,16.80
2022-09-18T15:58:47.024Z,16.80
2022-09-18T16:01:25.267Z,16.90
2022-09-18T16:04:08.961Z,16.90
2022-09-18T16:06:40.572Z,17.00
2022-09-18T16:09:07.968Z,17.00
2022-09-18T16:11:40.210Z,17.10
2022-09-18T16:14:26.240Z,17.00
2022-09-18T16:16:53.624Z,17.00
2022-09-18T16:19:21.318Z,17.00
2022-09-18T16:21:48.652Z,16.90
2022-09-18T16:24:21.700Z,16.70
2022-09-18T16:26:49.057Z,16.60
2022-09-18T16:29:19.058Z,16.50
2022-09-18T16:31:47.210Z,16.30
2022-09-18T16:34:21.908Z,16.00
2022-09-18T16:36:51.897Z,15.80
2022-09-18T16:39:24.368Z,15.60
2022-09-18T16:41:51.819Z,15.30
2022-09-18T16:44:19.314Z,15.00
2022-09-18T16:46:49.283Z,14.70
2022-09-18T16:49:19.039Z,14.40
2022-09-18T16:51:46.392Z,14.10
2022-09-18T16:54:13.725Z,13.90
2022-09-18T16:56:52.016Z,13.70
2022-09-18T16:59:20.987Z,13.60
2022-09-18T17:02:03.449Z,13.50
2022-09-18T17:04:32.225Z,13.40
2022-09-18T17:06:59.717Z,13.40
2022-09-18T17:09:27.563Z,13.30
2022-09-18T17:11:55.308Z,13.30
2022-09-18T17:14:23.324Z,13.30
2022-09-18T17:16:54.556Z,13.20
2022-09-18T17:19:22.342Z,13.20
2022-09-18T17:21:49.618Z,13.20
2022-09-18T17:24:24.338Z,13.20
2022-09-18T17:26:53.245Z,13.20
2022-09-18T17:29:20.745Z,13.10
2022-09-18T17:31:48.291Z,13.00
2022-09-18T17:34:17.109Z,13.00
2022-09-18T17:36:44.990Z,12.90
2022-09-18T17:39:12.757Z,12.90
2022-09-18T17:41:42.952Z,13.00
2022-09-18T17:44:10.322Z,13.00
2022-09-18T17:46:37.809Z,13.10
2022-09-18T17:49:06.157Z,13.10
2022-09-18T17:51:33.596Z,13.10
2022-09-18T17:54:03.108Z,13.00
2022-09-18T17:56:30.843Z,13.00
2022-09-18T17:59:01.938Z,12.90
2022-09-18T18:01:29.832Z,12.90
2022-09-18T18:03:57.541Z,13.00
2022-09-18T18:06:25.186Z,13.00
2022-09-18T18:08:53.382Z,12.90
2022-09-18T18:11:25.401Z,13.00
2022-09-18T18:13:56.578Z,13.00
2022-09-18T18:16:31.309Z,13.00
2022-09-18T18:19:00.145Z,13.00
2022-09-18T18:21:28.078Z,13.10
2022-09-18T18:23:58.752Z,13.10
2022-09-18T18:26:28.743Z,13.10
2022-09-18T18:28:57.503Z,13.00
2022-09-18T18:31:27.767Z,13.00
2022-09-18T18:33:56.087Z,13.00
2022-09-18T18:36:28.003Z,13.00
2022-09-18T18:38:57.475Z,13.10
2022-09-18T18:41:26.073Z,13.10
2022-09-18T18:43:55.888Z,13.20
2022-09-18T18:46:28.970Z,13.20
2022-09-18T18:49:00.602Z,13.30
2022-09-18T18:51:28.980Z,13.30
2022-09-18T18:53:56.779Z,13.30
2022-09-18T18:56:24.320Z,13.30
2022-09-18T18:58:55.488Z,13.30
2022-09-18T19:01:23.415Z,13.30
2022-09-18T19:03:52.279Z,13.30
2022-09-18T19:06:20.189Z,13.30
2022-09-18T19:08:47.919Z,13.30
2022-09-18T19:11:16.068Z,13.30
2022-09-18T19:13:44.820Z,13.40
2022-09-18T19:16:12.750Z,13.50
2022-09-18T19:18:40.486Z,13.60
2022-09-18T19:21:08.023Z,13.60
2022-09-18T19:23:35.940Z,13.70
2022-09-18T19:26:03.599Z,13.70
2022-09-18T19:28:31.577Z,13.70
2022-09-18T19:31:05.850Z,13.80
2022-09-18T19:33:33.785Z,13.80
2022-09-18T19:36:05.947Z,13.80
2022-09-18T19:38:33.695Z,13.90
2022-09-18T19:41:04.255Z,13.90
2022-09-18T19:43:33.264Z,13.90
2022-09-18T19:46:01.377Z,13.90
2022-09-18T19:48:28.755Z,14.00
2022-09-18T19:50:56.181Z,14.00
2022-09-18T19:53:23.539Z,14.00
2022-09-18T19:55:51.014Z,14.00
2022-09-18T19:58:19.223Z,14.00
2022-09-18T20:00:46.816Z,13.80
2022-09-18T20:03:15.544Z,13.70
2022-09-18T20:05:43.325Z,13.60
2022-09-18T20:08:14.140Z,13.50
2022-09-18T20:10:42.248Z,13.50
2022-09-18T20:13:11.467Z,13.50
2022-09-18T20:15:39.176Z,13.50
2022-09-18T20:18:07.535Z,13.60
2022-09-18T20:20:37.605Z,13.50
2022-09-18T20:23:06.216Z,13.60
2022-09-18T20:25:34.270Z,13.60
2022-09-18T20:28:02.402Z,13.60
2022-09-18T20:30:29.835Z,13.60
2022-09-18T20:32:57.185Z,13.60
2022-09-18T20:35:24.641Z,13.50
2022-09-18T20:37:51.879Z,13.50
2022-09-18T20:40:19.353Z,13.50
2022-09-18T20:42:49.255Z,13.50
2022-09-18T20:45:16.776Z,13.60
2022-09-18T20:47:44.556Z,13.60
2022-09-18T20:50:13.589Z,13.70
2022-09-18T20:52:43.223Z,13.80
2022-09-18T20:55:12.731Z,13.80
2022-09-18T20:57:40.643Z,13.90
2022-09-18T21:00:10.101Z,13.90
2022-09-18T21:02:38.266Z,14.00
2022-09-18T21:05:13.854Z,14.00
2022-09-18T21:07:42.376Z,14.10
2022-09-18T21:10:10.546Z,14.10
2022-09-18T21:12:39.062Z,14.10
2022-09-18T21:15:07.734Z,14.10
2022-09-18T21:17:35.128Z,14.10
2022-09-18T21:20:02.638Z,14.10
2022-09-18T21:22:31.994Z,14.10
2022-09-18T21:24:59.448Z,14.10
2022-09-18T21:27:27.061Z,14.10
2022-09-18T21:29:56.607Z,14.10
2022-09-18T21:32:24.036Z,14.10
2022-09-18T21:34:54.817Z,14.10
2022-09-18T21:37:22.161Z,14.20
2022-09-18T21:39:50.252Z,14.20
2022-09-18T21:42:17.921Z,14.20
2022-09-18T21:44:45.827Z,14.20
2022-09-18T21:47:13.322Z,14.10
2022-09-18T21:49:40.548Z,14.10
2022-09-18T21:52:08.458Z,14.10
2022-09-18T21:54:36.143Z,14.10
2022-09-18T21:57:03.568Z,14.10
2022-09-18T21:59:31.684Z,14.10
2022-09-18T22:01:59.516Z,14.10
2022-09-18T22:04:29.031Z,14.20
2022-09-18T22:06:57.590Z,14.30
2022-09-18T22:09:29.325Z,14.20
2022-09-18T22:11:57.398Z,14.20
2022-09-18T22:14:26.081Z,14.20
2022-09-18T22:16:56.646Z,14.20
2022-09-18T22:19:24.009Z,14.30
2022-09-18T22:21:52.067Z,14.30
2022-09-18T22:24:20.671Z,14.30
2022-09-18T22:26:50.138Z,14.40
2022-09-18T22:29:18.565Z,14.40
2022-09-18T22:31:49.543Z,14.40
2022-09-18T22:34:21.324Z,14.40
2022-09-18T22:36:49.252Z,14.40
2022-09-18T22:39:17.463Z,14.50
2022-09-18T22:41:45.155Z,14.50
2022-09-18T22:44:12.591Z,14.50
2022-09-18T22:46:41.309Z,14.50
2022-09-18T22:49:09.240Z,14.50
2022-09-18T22:51:36.507Z,14.50
2022-09-18T22:54:07.744Z,14.50
2022-09-18T22:56:39.690Z,14.50
2022-09-18T22:59:07.642Z,14.60
2022-09-18T23:01:37.737Z,14.60
2022-09-18T23:04:05.819Z,14.60
2022-09-18T23:06:33.944Z,14.60
2022-09-18T23:09:03.533Z,14.60
2022-09-18T23:11:32.043Z,14.50
2022-09-18T23:14:01.004Z,14.50
2022-09-18T23:16:30.292Z,14.50
2022-09-18T23:19:02.282Z,14.50
2022-09-18T23:21:32.286Z,14.50
2022-09-18T23:24:08.631Z,14.50
2022-09-18T23:26:41.180Z,14.50
2022-09-18T23:29:09.856Z,14.50
2022-09-18T23:31:38.430Z,14.50
2022-09-18T23:34:09.291Z,14.50
2022-09-18T23:36:37.922Z,14.40
2022-09-18T23:39:06.719Z,14.40
2022-09-18T23:41:38.262Z,14.40
2022-09-18T23:44:06.788Z,14.40
2022-09-18T23:46:34.519Z,14.40
2022-09-18T23:49:02.110Z,14.40
2022-09-18T23:51:30.995Z,14.30
2022-09-18T23:54:00.299Z,14.30
2022-09-18T23:56:29.517Z,14.30
2022-09-18T23:58:58.217Z,14.30
